createdAt,value
2023-02-23T00:02:10.326Z,12.25
2023-02-23T00:04:40.446Z,10.80
2023-02-23T00:07:10.702Z,10.52
2023-02-23T00:09:40.669Z,9.68
2023-02-23T00:12:10.291Z,12.43
2023-02-23T00:14:41.408Z,10.57
2023-02-23T00:17:15.279Z,10.60
2023-02-23T00:19:45.147Z,11.70
2023-02-23T00:22:15.150Z,9.85
2023-02-23T00:24:47.464Z,10.70
2023-02-23T00:27:21.428Z,10.88
2023-02-23T00:29:52.830Z,10.73
2023-02-23T00:32:22.325Z,11.98
2023-02-23T00:34:52.143Z,12.52
2023-02-23T00:37:23.202Z,11.93
2023-02-23T00:39:53.306Z,11.88
2023-02-23T00:42:22.696Z,12.52
2023-02-23T00:44:54.002Z,13.50
2023-02-23T00:47:23.375Z,12.88
2023-02-23T00:49:53.046Z,12.45
2023-02-23T00:52:22.309Z,14.43
2023-02-23T00:54:58.068Z,13.63
2023-02-23T00:57:27.476Z,13.88
2023-02-23T00:59:58.605Z,12.70
2023-02-23T01:02:31.000Z,14.13
2023-02-23T01:05:03.708Z,14.00
2023-02-23T01:07:33.076Z,12.43
2023-02-23T01:10:02.940Z,13.52
2023-02-23T01:12:33.063Z,13.93
2023-02-23T01:15:04.902Z,14.60
2023-02-23T01:17:34.443Z,15.07
2023-02-23T01:20:13.476Z,13.77
2023-02-23T01:22:43.194Z,14.38
2023-02-23T01:25:13.547Z,14.43
2023-02-23T01:27:43.999Z,14.15
2023-02-23T01:30:28.725Z,14.10
2023-02-23T01:32:58.062Z,14.23
2023-02-23T01:35:44.638Z,13.68
2023-02-23T01:38:21.560Z,13.90
2023-02-23T01:41:02.617Z,13.70
2023-02-23T01:43:32.127Z,13.52
2023-02-23T01:46:09.680Z,14.00
2023-02-23T01:48:41.542Z,15.23
2023-02-23T01:51:15.152Z,14.10
2023-02-23T01:53:48.936Z,15.88
2023-02-23T01:56:23.570Z,12.50
2023-02-23T01:58:57.317Z,14.23
2023-02-23T02:01:29.913Z,14.23
2023-02-23T02:04:01.216Z,15.18
2023-02-23T02:06:31.571Z,13.65
2023-02-23T02:09:07.307Z,12.60
2023-02-23T02:11:39.634Z,12.23
2023-02-23T02:14:13.275Z,13.35
2023-02-23T02:17:08.406Z,11.25
2023-02-23T02:20:33.111Z,11.52
2023-02-23T02:23:39.536Z,10.52
2023-02-23T02:26:21.164Z,10.25
2023-02-23T02:29:32.437Z,11.38
2023-02-23T02:32:47.624Z,11.65
2023-02-23T02:35:56.647Z,11.77
2023-02-23T02:38:55.123Z,11.30
2023-02-23T02:41:37.394Z,12.07
2023-02-23T02:44:15.909Z,10.80
2023-02-23T02:46:50.359Z,10.30
2023-02-23T02:49:28.150Z,10.00
2023-02-23T02:52:05.790Z,10.13
2023-02-23T02:54:42.265Z,10.65
2023-02-23T02:57:15.262Z,9.27
2023-02-23T03:00:03.575Z,7.93
2023-02-23T03:02:53.094Z,8.10
2023-02-23T03:05:43.258Z,7.15
2023-02-23T03:08:38.175Z,7.55
2023-02-23T03:11:28.589Z,7.90
2023-02-23T03:14:30.811Z,7.03
2023-02-23T03:17:27.374Z,7.28
2023-02-23T03:20:17.975Z,6.70
2023-02-23T03:23:13.008Z,6.85
2023-02-23T03:26:09.995Z,6.00
2023-02-23T03:29:07.417Z,6.97
2023-02-23T03:32:00.238Z,7.70
2023-02-23T03:34:52.517Z,7.22
2023-02-23T03:37:45.424Z,7.60
2023-02-23T03:40:37.443Z,7.10
2023-02-23T03:43:28.898Z,6.95
2023-02-23T03:46:20.007Z,7.50
2023-02-23T03:49:09.212Z,7.38
2023-02-23T03:51:58.823Z,7.22
2023-02-23T03:54:50.707Z,7.05
2023-02-23T03:57:40.404Z,7.28
2023-02-23T04:00:31.270Z,9.23
2023-02-23T04:03:20.162Z,7.53
2023-02-23T04:06:09.654Z,7.18
2023-02-23T04:08:58.472Z,6.80
2023-02-23T04:11:50.426Z,7.43
2023-02-23T04:14:24.115Z,6.70
2023-02-23T04:16:53.044Z,6.40
2023-02-23T04:19:24.019Z,6.93
2023-02-23T04:21:54.318Z,7.03
2023-02-23T04:24:24.124Z,7.53
2023-02-23T04:26:53.856Z,6.80
2023-02-23T04:29:23.254Z,6.50
2023-02-23T04:31:54.495Z,7.63
2023-02-23T04:34:25.497Z,6.38
2023-02-23T04:36:55.192Z,6.00
2023-02-23T04:39:24.502Z,6.20
2023-02-23T04:41:54.117Z,6.50
2023-02-23T04:44:23.556Z,7.20
2023-02-23T04:46:53.588Z,7.35
2023-02-23T04:49:23.185Z,7.32
2023-02-23T04:51:54.414Z,6.40
2023-02-23T04:56:53.950Z,7.78
2023-02-23T04:59:24.008Z,8.63
2023-02-23T05:01:53.609Z,8.10
2023-02-23T05:04:22.989Z,7.25
2023-02-23T05:06:54.403Z,6.95
2023-02-23T05:11:54.253Z,7.00
2023-02-23T05:14:24.219Z,7.43
2023-02-23T05:16:54.033Z,7.82
2023-02-23T05:19:23.385Z,7.95
2023-02-23T05:21:54.903Z,7.25
2023-02-23T05:24:24.326Z,9.15
2023-02-23T05:26:54.166Z,8.02
2023-02-23T05:29:24.006Z,8.07
2023-02-23T05:31:53.806Z,7.10
2023-02-23T05:34:23.446Z,8.20
2023-02-23T05:36:55.226Z,8.00
2023-02-23T05:39:25.231Z,7.10
2023-02-23T05:41:55.907Z,7.38
2023-02-23T05:44:26.010Z,7.03
2023-02-23T05:46:55.955Z,7.13
2023-02-23T05:49:25.362Z,7.05
2023-02-23T05:51:56.454Z,6.78
2023-02-23T05:54:26.095Z,7.07
2023-02-23T05:56:55.814Z,6.75
2023-02-23T05:59:25.564Z,8.63
2023-02-23T06:01:55.980Z,7.97
2023-02-23T06:04:25.253Z,7.30
2023-02-23T06:06:56.666Z,7.65
2023-02-23T06:11:56.174Z,7.00
2023-02-23T06:14:25.951Z,8.18
2023-02-23T06:16:55.796Z,8.77
2023-02-23T06:19:25.657Z,8.45
2023-02-23T06:21:56.840Z,8.00
2023-02-23T06:24:26.316Z,9.43
2023-02-23T06:26:56.715Z,9.00
2023-02-23T06:29:26.128Z,9.13
2023-02-23T06:31:58.446Z,9.68
2023-02-23T06:34:29.883Z,9.85
2023-02-23T06:37:01.220Z,9.52
2023-02-23T06:42:01.620Z,9.80
2023-02-23T06:44:31.117Z,9.63
2023-02-23T06:47:01.133Z,9.17
2023-02-23T06:49:30.509Z,9.02
2023-02-23T06:52:02.285Z,9.05
2023-02-23T06:54:31.595Z,8.88
2023-02-23T06:57:01.410Z,9.70
2023-02-23T06:59:30.965Z,8.40
2023-02-23T07:02:00.898Z,8.67
2023-02-23T07:04:31.276Z,8.90
2023-02-23T07:07:02.871Z,8.57
2023-02-23T07:09:32.243Z,9.32
2023-02-23T07:12:02.510Z,8.15
2023-02-23T07:14:33.470Z,8.05
2023-02-23T07:17:03.300Z,8.88
2023-02-23T07:19:32.880Z,8.70
2023-02-23T07:22:05.135Z,8.40
2023-02-23T07:24:34.427Z,9.32
2023-02-23T07:27:04.756Z,8.38
2023-02-23T07:29:34.164Z,7.90
2023-02-23T07:32:04.113Z,10.43
2023-02-23T07:34:34.510Z,8.60
2023-02-23T07:37:05.827Z,8.18
2023-02-23T07:39:35.108Z,8.90
2023-02-23T07:42:05.724Z,10.07
2023-02-23T07:44:35.303Z,9.30
2023-02-23T07:47:05.550Z,9.35
2023-02-23T07:49:35.720Z,9.60
2023-02-23T07:52:07.403Z,8.95
2023-02-23T07:54:37.366Z,8.65
2023-02-23T07:57:07.033Z,9.45
2023-02-23T07:59:37.389Z,9.90
2023-02-23T08:02:07.314Z,9.02
2023-02-23T08:04:37.423Z,9.95
2023-02-23T08:07:09.076Z,9.48
2023-02-23T08:09:38.425Z,10.70
2023-02-23T08:12:08.487Z,8.43
2023-02-23T08:14:37.850Z,9.15
2023-02-23T08:17:08.002Z,9.07
2023-02-23T08:19:38.215Z,8.35
2023-02-23T08:22:10.223Z,8.38
2023-02-23T08:24:39.905Z,9.48
2023-02-23T08:27:10.146Z,8.98
2023-02-23T08:29:39.419Z,11.45
2023-02-23T08:32:09.163Z,11.50
2023-02-23T08:34:40.855Z,9.10
2023-02-23T08:37:12.228Z,9.57
2023-02-23T08:39:43.623Z,7.90
2023-02-23T08:42:13.338Z,10.23
2023-02-23T08:44:42.575Z,8.25
2023-02-23T08:47:12.808Z,8.93
2023-02-23T08:49:42.299Z,7.70
2023-02-23T08:52:13.484Z,9.63
2023-02-23T08:54:43.258Z,9.57
2023-02-23T08:57:13.036Z,8.23
2023-02-23T08:59:42.786Z,8.63
2023-02-23T09:02:15.018Z,8.43
2023-02-23T09:04:44.941Z,9.15
2023-02-23T09:07:19.556Z,9.77
2023-02-23T09:09:48.956Z,9.30
2023-02-23T09:12:18.554Z,9.60
2023-02-23T09:14:47.815Z,9.93
2023-02-23T09:17:18.114Z,8.90
2023-02-23T09:19:48.161Z,10.90
2023-02-23T09:22:20.053Z,9.18
2023-02-23T09:24:49.564Z,8.38
2023-02-23T09:27:20.054Z,8.80
2023-02-23T09:29:49.567Z,9.20
2023-02-23T09:32:19.814Z,10.57
2023-02-23T09:34:50.029Z,10.47
2023-02-23T09:37:21.294Z,9.43
2023-02-23T09:42:35.548Z,9.68
2023-02-23T09:45:18.827Z,9.57
2023-02-23T09:48:00.546Z,9.55
2023-02-23T09:50:32.515Z,9.57
2023-02-23T09:53:06.604Z,9.95
2023-02-23T09:55:36.427Z,11.32
2023-02-23T09:58:10.871Z,11.63
2023-02-23T10:00:44.490Z,11.10
2023-02-23T10:03:22.961Z,10.70
2023-02-23T10:05:57.774Z,9.80
2023-02-23T10:08:44.278Z,10.10
2023-02-23T10:11:25.760Z,9.88
2023-02-23T10:14:10.137Z,10.65
2023-02-23T10:16:50.549Z,12.10
2023-02-23T10:21:57.576Z,9.90
2023-02-23T10:24:31.995Z,10.75
2023-02-23T10:27:06.223Z,11.02
2023-02-23T10:29:38.948Z,10.15
2023-02-23T10:32:16.857Z,10.43
2023-02-23T10:34:49.168Z,10.30
2023-02-23T10:37:20.095Z,10.10
2023-02-23T10:39:51.858Z,10.15
2023-02-23T10:42:29.152Z,10.00
2023-02-23T10:45:00.357Z,10.05
2023-02-23T10:47:33.004Z,11.27
2023-02-23T10:50:03.890Z,10.10
2023-02-23T10:52:41.874Z,10.88
2023-02-23T10:55:24.872Z,11.07
2023-02-23T10:58:04.145Z,10.65
2023-02-23T11:00:34.505Z,10.60
2023-02-23T11:03:04.730Z,10.05
2023-02-23T11:05:46.348Z,12.43
2023-02-23T11:11:07.839Z,8.95
2023-02-23T11:13:42.948Z,11.00
2023-02-23T11:16:14.986Z,12.13
2023-02-23T11:18:54.945Z,12.02
2023-02-23T11:21:29.786Z,11.02
2023-02-23T11:24:03.560Z,11.05
2023-02-23T11:26:42.806Z,12.35
2023-02-23T11:29:18.043Z,11.95
2023-02-23T11:31:53.714Z,10.65
2023-02-23T11:34:30.183Z,12.35
2023-02-23T11:37:02.893Z,12.25
2023-02-23T11:39:32.469Z,11.98
2023-02-23T11:42:21.237Z,15.40
2023-02-23T11:44:53.201Z,12.75
2023-02-23T11:47:26.356Z,12.05
2023-02-23T11:49:56.566Z,12.43
2023-02-23T11:52:28.174Z,13.23
2023-02-23T11:54:59.797Z,11.57
2023-02-23T11:57:33.908Z,12.32
2023-02-23T12:00:11.518Z,11.75
2023-02-23T12:02:50.693Z,11.52
2023-02-23T12:05:23.789Z,13.52
2023-02-23T12:07:59.263Z,12.80
2023-02-23T12:10:32.312Z,12.48
2023-02-23T12:13:27.232Z,12.23
2023-02-23T12:16:00.516Z,11.82
2023-02-23T12:18:43.651Z,12.35
2023-02-23T12:21:29.200Z,11.40
2023-02-23T12:24:11.942Z,11.00
2023-02-23T12:26:50.261Z,12.98
2023-02-23T12:29:30.635Z,11.55
2023-02-23T12:32:03.192Z,12.90
2023-02-23T12:34:38.289Z,12.20
2023-02-23T12:37:23.097Z,13.38
2023-02-23T12:39:59.241Z,12.25
2023-02-23T12:42:44.721Z,11.85
2023-02-23T12:45:23.304Z,12.95
2023-02-23T12:47:57.833Z,12.25
2023-02-23T12:50:30.496Z,13.10
2023-02-23T12:53:02.352Z,11.50
2023-02-23T12:55:40.462Z,13.32
2023-02-23T12:58:21.582Z,12.50
2023-02-23T13:01:02.502Z,13.88
2023-02-23T13:04:09.923Z,14.27
2023-02-23T13:06:46.993Z,13.25
2023-02-23T13:09:32.016Z,13.68
2023-02-23T13:12:24.572Z,13.27
2023-02-23T13:15:03.888Z,12.30
2023-02-23T13:17:45.632Z,13.35
2023-02-23T13:20:25.797Z,12.93
2023-02-23T13:23:06.700Z,11.75
2023-02-23T13:25:43.777Z,12.00
2023-02-23T13:28:19.652Z,13.45
2023-02-23T13:30:49.019Z,13.05
2023-02-23T13:33:41.875Z,12.25
2023-02-23T13:36:14.892Z,12.45
2023-02-23T13:39:18.743Z,12.30
2023-02-23T13:41:54.466Z,12.32
2023-02-23T13:44:28.931Z,14.13
2023-02-23T13:47:08.523Z,11.60
2023-02-23T13:49:48.054Z,13.85
2023-02-23T13:52:31.608Z,12.45
2023-02-23T13:55:05.696Z,13.55
2023-02-23T13:57:35.956Z,15.00
2023-02-23T14:00:06.613Z,12.90
2023-02-23T14:02:41.242Z,13.68
2023-02-23T14:05:21.188Z,11.98
2023-02-23T14:07:54.636Z,12.55
2023-02-23T14:10:26.621Z,13.02
2023-02-23T14:13:26.812Z,14.25
2023-02-23T14:16:15.844Z,13.48
2023-02-23T14:19:12.248Z,13.50
2023-02-23T14:21:52.778Z,15.38
2023-02-23T14:24:24.678Z,14.47
2023-02-23T14:27:41.850Z,13.65
2023-02-23T14:30:22.095Z,13.85
2023-02-23T14:32:54.076Z,14.02
2023-02-23T14:35:45.425Z,12.93
2023-02-23T14:38:46.892Z,13.13
2023-02-23T14:41:22.283Z,14.50
2023-02-23T14:43:56.028Z,15.05
2023-02-23T14:46:28.341Z,13.93
2023-02-23T14:49:01.450Z,13.57
2023-02-23T14:51:42.615Z,12.82
2023-02-23T14:54:17.047Z,15.02
2023-02-23T14:56:51.390Z,14.43
2023-02-23T14:59:23.235Z,15.57
2023-02-23T15:01:53.428Z,12.93
2023-02-23T15:04:26.055Z,13.32
2023-02-23T15:06:58.038Z,14.98
2023-02-23T15:09:36.707Z,17.42
2023-02-23T15:12:17.342Z,13.73
2023-02-23T15:14:50.175Z,15.00
2023-02-23T15:17:22.511Z,15.20
2023-02-23T15:20:09.579Z,15.85
2023-02-23T15:22:44.407Z,14.80
2023-02-23T15:25:19.789Z,16.23
2023-02-23T15:27:52.059Z,14.30
2023-02-23T15:30:27.880Z,15.27
2023-02-23T15:33:06.131Z,14.07
2023-02-23T15:35:42.611Z,15.98
2023-02-23T15:38:40.559Z,15.00
2023-02-23T15:41:15.616Z,16.20
2023-02-23T15:43:45.989Z,17.35
2023-02-23T15:46:27.252Z,17.92
2023-02-23T15:49:01.472Z,18.80
2023-02-23T15:51:37.811Z,18.27
2023-02-23T15:54:14.398Z,17.80
2023-02-23T15:56:50.192Z,19.30
2023-02-23T15:59:29.093Z,18.83
2023-02-23T16:02:02.372Z,17.65
2023-02-23T16:04:34.288Z,18.27
2023-02-23T16:07:18.106Z,16.40
2023-02-23T16:09:53.226Z,16.35
2023-02-23T16:12:29.424Z,18.25
2023-02-23T16:15:00.703Z,17.77
2023-02-23T16:17:36.489Z,17.70
2023-02-23T16:20:15.509Z,18.45
2023-02-23T16:22:46.737Z,16.38
2023-02-23T16:25:19.831Z,17.92
2023-02-23T16:27:59.714Z,16.58
2023-02-23T16:30:40.990Z,19.42
2023-02-23T16:33:20.121Z,18.60
2023-02-23T16:35:52.014Z,17.45
2023-02-23T16:38:26.731Z,18.42
2023-02-23T16:40:56.588Z,18.70
2023-02-23T16:43:30.079Z,20.43
2023-02-23T16:46:00.181Z,18.05
2023-02-23T16:48:30.512Z,20.30
2023-02-23T16:50:59.830Z,18.90
2023-02-23T16:53:29.471Z,18.85
2023-02-23T16:56:02.041Z,18.73
2023-02-23T16:58:36.529Z,20.25
2023-02-23T17:01:06.657Z,19.90
2023-02-23T17:03:40.957Z,18.23
2023-02-23T17:06:16.716Z,18.67
2023-02-23T17:08:56.194Z,16.98
2023-02-23T17:11:27.634Z,18.17
2023-02-23T17:13:58.799Z,17.67
2023-02-23T17:16:28.164Z,18.92
2023-02-23T17:18:59.714Z,18.42
2023-02-23T17:21:29.544Z,19.45
2023-02-23T17:24:03.063Z,16.92
2023-02-23T17:26:32.492Z,18.08
2023-02-23T17:29:03.720Z,16.08
2023-02-23T17:31:33.806Z,18.38
2023-02-23T17:34:04.203Z,16.13
2023-02-23T17:36:34.026Z,17.08
2023-02-23T17:39:03.696Z,17.93
2023-02-23T17:41:34.560Z,17.45
2023-02-23T17:44:06.138Z,19.02
2023-02-23T17:46:36.264Z,15.98
2023-02-23T17:49:06.916Z,25.95
2023-02-23T17:51:36.167Z,19.05
2023-02-23T17:54:05.960Z,18.30
2023-02-23T17:56:35.227Z,17.17
2023-02-23T17:59:06.368Z,17.05
2023-02-23T18:01:35.752Z,16.88
2023-02-23T18:04:07.468Z,17.43
2023-02-23T18:09:06.512Z,15.38
2023-02-23T18:11:36.408Z,17.30
2023-02-23T18:14:09.748Z,17.67
2023-02-23T18:16:39.132Z,17.45
2023-02-23T18:19:11.247Z,18.15
2023-02-23T18:21:41.861Z,17.05
2023-02-23T18:24:12.140Z,16.92
2023-02-23T18:26:42.312Z,16.08
2023-02-23T18:29:13.840Z,18.83
2023-02-23T18:31:43.278Z,16.58
2023-02-23T18:34:14.021Z,17.00
2023-02-23T18:36:45.093Z,19.13
2023-02-23T18:39:15.977Z,19.23
2023-02-23T18:41:45.456Z,16.50
2023-02-23T18:44:18.455Z,18.05
2023-02-23T18:46:48.050Z,19.15
2023-02-23T18:49:21.846Z,17.08
2023-02-23T18:51:51.475Z,18.17
2023-02-23T18:54:22.748Z,18.60
2023-02-23T18:56:52.078Z,17.33
2023-02-23T18:59:23.652Z,17.80
2023-02-23T19:01:53.105Z,19.20
2023-02-23T19:04:22.724Z,19.33
2023-02-23T19:06:52.531Z,18.40
2023-02-23T19:09:22.708Z,17.17
2023-02-23T19:11:52.108Z,18.88
2023-02-23T19:14:41.029Z,20.13
2023-02-23T19:19:43.324Z,19.15
2023-02-23T19:22:12.768Z,20.05
2023-02-23T19:24:42.918Z,19.45
2023-02-23T19:27:12.295Z,19.52
2023-02-23T19:29:43.394Z,21.45
2023-02-23T19:32:13.358Z,18.63
2023-02-23T19:34:43.183Z,19.75
2023-02-23T19:37:14.858Z,21.55
2023-02-23T19:39:46.661Z,20.98
2023-02-23T19:42:18.649Z,20.40
2023-02-23T19:44:50.016Z,20.25
2023-02-23T19:49:49.117Z,20.75
2023-02-23T19:52:19.100Z,20.25
2023-02-23T19:54:48.795Z,21.67
2023-02-23T19:57:18.121Z,20.55
2023-02-23T19:59:51.356Z,23.98
2023-02-23T20:02:20.938Z,21.65
2023-02-23T20:04:51.695Z,22.13
2023-02-23T20:07:21.286Z,21.80
2023-02-23T20:09:50.932Z,20.50
2023-02-23T20:12:20.454Z,21.55
2023-02-23T20:14:52.639Z,21.45
2023-02-23T20:17:22.716Z,23.05
2023-02-23T20:19:52.543Z,21.10
2023-02-23T20:22:21.912Z,19.85
2023-02-23T20:24:51.732Z,22.67
2023-02-23T20:27:22.925Z,22.65
2023-02-23T20:29:54.407Z,21.75
2023-02-23T20:32:24.026Z,25.10
2023-02-23T20:34:54.403Z,21.77
2023-02-23T20:37:24.327Z,22.42
2023-02-23T20:39:55.013Z,22.45
2023-02-23T20:42:25.417Z,22.65
2023-02-23T20:44:57.460Z,22.75
2023-02-23T20:47:29.878Z,22.98
2023-02-23T20:49:59.548Z,23.45
2023-02-23T20:52:29.097Z,24.10
2023-02-23T20:54:58.992Z,23.70
2023-02-23T20:57:28.260Z,25.27
2023-02-23T20:59:59.653Z,23.20
2023-02-23T21:04:58.659Z,23.45
2023-02-23T21:07:28.287Z,22.98
2023-02-23T21:09:59.641Z,25.30
2023-02-23T21:15:02.278Z,26.00
2023-02-23T21:17:31.539Z,25.63
2023-02-23T21:20:01.582Z,25.08
2023-02-23T21:22:30.861Z,24.42
2023-02-23T21:25:01.017Z,24.98
2023-02-23T21:27:30.381Z,25.17
2023-02-23T21:30:01.506Z,27.30
2023-02-23T21:32:32.701Z,26.17
2023-02-23T21:35:02.419Z,24.83
2023-02-23T21:37:32.229Z,27.73
2023-02-23T21:40:02.306Z,27.93
2023-02-23T21:42:31.866Z,27.60
2023-02-23T21:45:03.064Z,30.10
2023-02-23T21:47:36.963Z,26.13
2023-02-23T21:50:07.530Z,27.33
2023-02-23T21:52:36.753Z,28.30
2023-02-23T21:55:13.184Z,26.98
2023-02-23T21:57:49.105Z,27.55
2023-02-23T22:00:21.173Z,27.55
2023-02-23T22:02:50.827Z,28.95
2023-02-23T22:05:21.216Z,30.67
2023-02-23T22:07:52.277Z,28.45
2023-02-23T22:10:24.785Z,28.15
2023-02-23T22:12:56.341Z,27.90
2023-02-23T22:15:28.733Z,30.60
2023-02-23T22:17:58.650Z,28.92
2023-02-23T22:20:28.808Z,28.02
2023-02-23T22:22:58.094Z,30.20
2023-02-23T22:25:28.406Z,28.90
2023-02-23T22:27:57.736Z,28.88
2023-02-23T22:30:29.017Z,28.70
2023-02-23T22:32:58.604Z,29.02
2023-02-23T22:35:28.387Z,29.83
2023-02-23T22:38:00.648Z,28.92
2023-02-23T22:40:30.371Z,26.88
2023-02-23T22:43:02.456Z,28.30
2023-02-23T22:45:33.767Z,29.27
2023-02-23T22:48:06.260Z,28.38
2023-02-23T22:50:36.825Z,27.83
2023-02-23T22:53:07.475Z,26.02
2023-02-23T22:55:40.089Z,25.80
2023-02-23T22:58:11.093Z,27.40
2023-02-23T23:00:42.353Z,26.95
2023-02-23T23:03:13.430Z,25.92
2023-02-23T23:05:43.081Z,26.20
2023-02-23T23:08:13.793Z,24.00
2023-02-23T23:10:44.107Z,25.48
2023-02-23T23:13:13.395Z,25.45
2023-02-23T23:15:45.442Z,25.60
2023-02-23T23:18:20.890Z,26.33
2023-02-23T23:20:50.748Z,25.55
2023-02-23T23:23:20.075Z,25.63
2023-02-23T23:25:50.017Z,26.88
2023-02-23T23:28:24.433Z,24.98
2023-02-23T23:30:56.492Z,25.42
2023-02-23T23:33:27.306Z,29.05
2023-02-23T23:35:57.515Z,24.60
2023-02-23T23:38:26.798Z,25.45
2023-02-23T23:40:57.601Z,27.05
2023-02-23T23:43:28.927Z,26.40
2023-02-23T23:46:00.712Z,24.23
2023-02-23T23:48:30.605Z,25.63
2023-02-23T23:51:05.423Z,23.10
2023-02-23T23:53:35.242Z,24.95
2023-02-23T23:56:07.019Z,24.37
2023-02-23T23:58:36.921Z,24.30
